Time;durP1;ratioP1;P1;durP2;ratioP2;P2;SDS_P1;SDS_P2;PMS_P1;PMS_P2;Temp;Humidity;BMP_temperature;BMP_pressure;BME280_temperature;BME280_humidity;BME280_pressure;Samples;Min_cycle;Max_cycle;Signal;HPM_P1;HPM_P2
2022/11/06 00:00:23;;;;;;;0.10;0.10;;;;;;;;;;5109772;28;20031;-70
2022/11/06 00:02:49;;;;;;;0.10;0.10;;;;;;;;;;5109563;28;20020;-70
2022/11/06 00:07:58;;;;;;;0.10;0.10;;;;;;;;;;5108443;28;20097;-70
2022/11/06 00:10:24;;;;;;;0.10;0.10;;;;;;;;;;5110051;28;20430;-69
2022/11/06 00:12:50;;;;;;;0.20;0.20;;;;;;;;;;5108267;28;20035;-71
2022/11/06 00:15:15;;;;;;;0.10;0.10;;;;;;;;;;5108324;28;20038;-70
2022/11/06 00:17:41;;;;;;;0.10;0.10;;;;;;;;;;5113866;28;20531;-70
2022/11/06 00:20:07;;;;;;;0.10;0.10;;;;;;;;;;5115906;28;20034;-71
2022/11/06 00:22:33;;;;;;;0.10;0.10;;;;;;;;;;5116241;28;20039;-70
2022/11/06 00:24:59;;;;;;;0.22;0.22;;;;;;;;;;5116620;28;20020;-69
2022/11/06 00:27:24;;;;;;;0.10;0.10;;;;;;;;;;5117453;28;20046;-70
2022/11/06 00:29:50;;;;;;;0.10;0.10;;;;;;;;;;5117641;28;20503;-69
2022/11/06 00:32:15;;;;;;;0.20;0.20;;;;;;;;;;5117357;28;20058;-69
2022/11/06 00:34:41;;;;;;;0.10;0.10;;;;;;;;;;5117385;28;20024;-68
2022/11/06 00:37:06;;;;;;;0.10;0.10;;;;;;;;;;5117101;28;20028;-69
2022/11/06 00:39:31;;;;;;;0.10;0.10;;;;;;;;;;5116363;28;20058;-68
2022/11/06 00:41:57;;;;;;;0.10;0.10;;;;;;;;;;5117524;28;20076;-68
2022/11/06 00:44:22;;;;;;;0.10;0.10;;;;;;;;;;5117270;28;20528;-68
2022/11/06 00:46:48;;;;;;;0.20;0.20;;;;;;;;;;5115800;28;20051;-68
2022/11/06 00:49:13;;;;;;;0.10;0.10;;;;;;;;;;5116057;28;20031;-69
2022/11/06 00:51:39;;;;;;;0.10;0.10;;;;;;;;;;5115677;27;20016;-71
2022/11/06 00:54:06;;;;;;;0.10;0.10;;;;;;;;;;5117368;28;20061;-70
2022/11/06 00:56:32;;;;;;;0.10;0.10;;;;;;;;;;5117028;28;20028;-68
2022/11/06 00:58:58;;;;;;;0.10;0.10;;;;;;;;;;5116131;28;20040;-69
2022/11/06 01:01:25;;;;;;;0.10;0.10;;;;;;;;;;5117320;28;20012;-69
2022/11/06 01:03:55;;;;;;;0.17;0.17;;;;;;;;;;5115232;28;20034;-69
2022/11/06 01:06:22;;;;;;;0.10;0.10;;;;;;;;;;5116400;28;20478;-71
2022/11/06 01:08:48;;;;;;;0.10;0.10;;;;;;;;;;5115514;28;20039;-69
2022/11/06 01:11:42;;;;;;;0.57;0.43;;;;;;;;;;5116767;28;20090;-69
2022/11/06 01:14:10;;;;;;;0.10;0.10;;;;;;;;;;5085615;28;20128;-71
2022/11/06 01:16:36;;;;;;;0.10;0.10;;;;;;;;;;5116447;28;20108;-70
2022/11/06 01:19:01;;;;;;;0.10;0.10;;;;;;;;;;5115649;28;20063;-69
2022/11/06 01:21:28;;;;;;;0.17;0.10;;;;;;;;;;5115379;28;20038;-69
2022/11/06 01:23:54;;;;;;;0.10;0.10;;;;;;;;;;5116259;28;20441;-69
2022/11/06 01:26:20;;;;;;;0.10;0.10;;;;;;;;;;5115302;28;20051;-69
2022/11/06 01:28:46;;;;;;;0.10;0.10;;;;;;;;;;5116276;28;20483;-69
2022/11/06 01:31:13;;;;;;;0.10;0.10;;;;;;;;;;5115371;28;20031;-70
2022/11/06 01:33:39;;;;;;;0.10;0.10;;;;;;;;;;5114859;28;20050;-68
2022/11/06 01:36:04;;;;;;;0.98;0.65;;;;;;;;;;5116393;28;20063;-68
2022/11/06 01:38:30;;;;;;;0.10;0.10;;;;;;;;;;5116397;28;20023;-69
2022/11/06 01:40:55;;;;;;;0.10;0.10;;;;;;;;;;5115046;28;20042;-69
2022/11/06 01:43:22;;;;;;;0.10;0.10;;;;;;;;;;5116024;28;20019;-69
2022/11/06 01:45:49;;;;;;;0.10;0.10;;;;;;;;;;5114611;28;20048;-69
2022/11/06 01:48:17;;;;;;;0.10;0.10;;;;;;;;;;5115967;28;20390;-69
2022/11/06 01:50:44;;;;;;;0.40;0.40;;;;;;;;;;5115728;28;20031;-69
2022/11/06 01:53:10;;;;;;;0.10;0.10;;;;;;;;;;5115561;28;20023;-69
2022/11/06 01:55:37;;;;;;;0.10;0.10;;;;;;;;;;5116249;28;20034;-69
2022/11/06 01:58:04;;;;;;;0.28;0.25;;;;;;;;;;5116135;28;20066;-69
2022/11/06 02:00:31;;;;;;;0.35;0.35;;;;;;;;;;5114473;28;20082;-69
2022/11/06 02:02:57;;;;;;;0.10;0.10;;;;;;;;;;5115027;28;20028;-69
2022/11/06 02:05:22;;;;;;;0.20;0.20;;;;;;;;;;5115546;27;20474;-69
2022/11/06 02:07:48;;;;;;;0.63;0.30;;;;;;;;;;5114476;28;20508;-69
2022/11/06 02:10:13;;;;;;;0.10;0.10;;;;;;;;;;5116031;28;20030;-69
2022/11/06 02:12:41;;;;;;;0.10;0.10;;;;;;;;;;5115621;28;20031;-69
2022/11/06 02:15:11;;;;;;;0.10;0.10;;;;;;;;;;5115373;28;20016;-69
2022/11/06 02:17:56;;;;;;;0.10;0.10;;;;;;;;;;5115595;28;20051;-70
2022/11/06 02:20:27;;;;;;;0.10;0.10;;;;;;;;;;5115368;28;20061;-69
2022/11/06 02:22:53;;;;;;;0.10;0.10;;;;;;;;;;5114046;28;20035;-69
2022/11/06 02:25:24;;;;;;;0.10;0.10;;;;;;;;;;5115764;28;20028;-69
2022/11/06 02:27:57;;;;;;;0.10;0.10;;;;;;;;;;5096661;28;20038;-69
2022/11/06 02:30:23;;;;;;;0.10;0.10;;;;;;;;;;5113893;28;20040;-69
2022/11/06 02:32:54;;;;;;;0.10;0.10;;;;;;;;;;5115082;28;20104;-69
2022/11/06 02:35:20;;;;;;;0.10;0.10;;;;;;;;;;5115201;27;20386;-69
2022/11/06 02:37:46;;;;;;;0.10;0.10;;;;;;;;;;5115077;28;20114;-68
2022/11/06 02:40:12;;;;;;;0.47;0.35;;;;;;;;;;5114973;28;20077;-69
2022/11/06 02:42:40;;;;;;;0.10;0.10;;;;;;;;;;5114791;28;20490;-69
2022/11/06 02:45:08;;;;;;;0.20;0.20;;;;;;;;;;5115247;28;20359;-69
2022/11/06 02:47:34;;;;;;;0.15;0.15;;;;;;;;;;5113810;28;20490;-69
2022/11/06 02:50:10;;;;;;;0.10;0.10;;;;;;;;;;5114880;28;20032;-69
2022/11/06 02:52:39;;;;;;;0.13;0.13;;;;;;;;;;5114811;28;20035;-69
2022/11/06 02:55:09;;;;;;;0.10;0.10;;;;;;;;;;5115061;28;20031;-68
2022/11/06 02:57:37;;;;;;;0.10;0.10;;;;;;;;;;5114624;28;20031;-69
2022/11/06 03:00:10;;;;;;;0.10;0.10;;;;;;;;;;5114648;28;20028;-68
2022/11/06 03:02:43;;;;;;;0.10;0.10;;;;;;;;;;5112808;28;20027;-68
2022/11/06 03:05:15;;;;;;;0.10;0.10;;;;;;;;;;5114462;28;20027;-68
2022/11/06 03:07:49;;;;;;;0.10;0.10;;;;;;;;;;5114171;28;20032;-69
2022/11/06 03:10:14;;;;;;;0.17;0.17;;;;;;;;;;5114477;28;20029;-69
2022/11/06 03:12:46;;;;;;;1.58;0.47;;;;;;;;;;5114458;28;20027;-69
2022/11/06 03:15:21;;;;;;;0.45;0.30;;;;;;;;;;5114270;28;20028;-69
2022/11/06 03:18:07;;;;;;;0.15;0.15;;;;;;;;;;5114323;28;20069;-70
2022/11/06 03:20:35;;;;;;;0.10;0.10;;;;;;;;;;5106834;28;20096;-70
2022/11/06 03:23:10;;;;;;;0.55;0.38;;;;;;;;;;5114379;28;20020;-70
2022/11/06 03:25:45;;;;;;;0.10;0.10;;;;;;;;;;5113968;28;20050;-70
2022/11/06 03:28:16;;;;;;;0.10;0.10;;;;;;;;;;5113999;28;20032;-70
2022/11/06 03:30:45;;;;;;;0.17;0.17;;;;;;;;;;5113891;27;20485;-69
2022/11/06 03:33:23;;;;;;;0.10;0.10;;;;;;;;;;5114049;28;20032;-69
2022/11/06 03:35:52;;;;;;;0.17;0.17;;;;;;;;;;5112767;28;20272;-69
2022/11/06 03:38:22;;;;;;;0.10;0.10;;;;;;;;;;5114078;28;20024;-69
2022/11/06 03:40:47;;;;;;;;;;;;;;;;;;5113331;28;20028;-69
2022/11/06 03:43:15;;;;;;;0.10;0.10;;;;;;;;;;5113647;28;19914;-69
2022/11/06 03:45:41;;;;;;;0.10;0.10;;;;;;;;;;5113426;28;20307;-69
2022/11/06 03:48:08;;;;;;;0.10;0.10;;;;;;;;;;5113476;28;20031;-70
2022/11/06 03:50:53;;;;;;;0.10;0.10;;;;;;;;;;5114146;28;20031;-70
2022/11/06 03:53:37;;;;;;;0.10;0.10;;;;;;;;;;5106355;28;20059;-69
2022/11/06 03:56:12;;;;;;;0.10;0.10;;;;;;;;;;5113592;28;20039;-69
2022/11/06 03:58:39;;;;;;;0.10;0.10;;;;;;;;;;5113710;28;20031;-69
2022/11/06 04:01:06;;;;;;;0.10;0.10;;;;;;;;;;5112502;28;20028;-69
2022/11/06 04:03:34;;;;;;;0.10;0.10;;;;;;;;;;5095332;28;20379;-70
2022/11/06 04:06:23;;;;;;;14.05;2.15;;;;;;;;;;5089761;28;20028;-69
2022/11/06 04:14:21;;;;;;;0.10;0.10;;;;;;;;;;5089809;28;20039;-70
2022/11/06 04:16:49;;;;;;;0.10;0.10;;;;;;;;;;5089457;28;20063;-70
2022/11/06 04:19:16;;;;;;;0.10;0.10;;;;;;;;;;5089065;28;20027;-69
2022/11/06 04:21:46;;;;;;;0.10;0.10;;;;;;;;;;5088982;28;20501;-70
2022/11/06 04:27:14;;;;;;;0.10;0.10;;;;;;;;;;5088838;28;20783;-69
2022/11/06 04:29:40;;;;;;;0.10;0.10;;;;;;;;;;5088069;28;20471;-69
2022/11/06 04:32:20;;;;;;;0.10;0.10;;;;;;;;;;5089760;28;20038;-69
2022/11/06 04:34:58;;;;;;;0.10;0.10;;;;;;;;;;5088877;28;20033;-69
2022/11/06 04:37:52;;;;;;;0.10;0.10;;;;;;;;;;5089162;28;20394;-69
2022/11/06 04:40:23;;;;;;;0.10;0.10;;;;;;;;;;5089654;28;20028;-69
2022/11/06 04:42:53;;;;;;;0.10;0.10;;;;;;;;;;5089237;28;20032;-69
2022/11/06 04:45:27;;;;;;;0.10;0.10;;;;;;;;;;5089337;28;20020;-69
2022/11/06 04:47:53;;;;;;;0.10;0.10;;;;;;;;;;5070722;28;20858;-68
2022/11/06 04:50:21;;;;;;;0.10;0.10;;;;;;;;;;5088879;28;20060;-69
2022/11/06 04:52:46;;;;;;;0.10;0.10;;;;;;;;;;5088474;28;20426;-69
2022/11/06 04:55:12;;;;;;;0.10;0.10;;;;;;;;;;5071228;28;20112;-69
2022/11/06 04:57:37;;;;;;;0.10;0.10;;;;;;;;;;5089020;28;20038;-69
2022/11/06 05:00:03;;;;;;;0.28;0.22;;;;;;;;;;5088655;28;20028;-69
2022/11/06 05:02:28;;;;;;;0.10;0.10;;;;;;;;;;5087441;28;20368;-69
2022/11/06 05:04:54;;;;;;;0.10;0.10;;;;;;;;;;5088673;28;20420;-69
2022/11/06 05:07:19;;;;;;;0.10;0.10;;;;;;;;;;5090487;28;20037;-69
2022/11/06 05:09:45;;;;;;;0.10;0.10;;;;;;;;;;5092654;28;20374;-68
2022/11/06 05:12:10;;;;;;;0.10;0.10;;;;;;;;;;5092086;28;20027;-70
2022/11/06 05:14:36;;;;;;;0.10;0.10;;;;;;;;;;5092124;28;20043;-71
2022/11/06 05:17:01;;;;;;;0.10;0.10;;;;;;;;;;5091670;28;20060;-70
2022/11/06 05:19:27;;;;;;;0.10;0.10;;;;;;;;;;5091984;28;20063;-70
2022/11/06 05:24:36;;;;;;;0.10;0.10;;;;;;;;;;5092037;28;20063;-70
2022/11/06 05:27:01;;;;;;;0.10;0.10;;;;;;;;;;5090596;28;20064;-70
2022/11/06 05:29:27;;;;;;;0.10;0.10;;;;;;;;;;5091193;28;20071;-69
2022/11/06 05:31:52;;;;;;;0.10;0.10;;;;;;;;;;5092059;28;20048;-69
2022/11/06 05:34:18;;;;;;;0.10;0.10;;;;;;;;;;5092301;28;20028;-70
2022/11/06 05:36:43;;;;;;;0.10;0.10;;;;;;;;;;5091665;28;20080;-71
2022/11/06 05:39:09;;;;;;;0.10;0.10;;;;;;;;;;5092036;28;20036;-71
2022/11/06 05:41:35;;;;;;;0.05;0.05;;;;;;;;;;5092155;28;20030;-69
2022/11/06 05:44:01;;;;;;;0.10;0.10;;;;;;;;;;5091884;28;20067;-71
2022/11/06 05:46:26;;;;;;;0.10;0.10;;;;;;;;;;5091361;28;20072;-70
2022/11/06 05:48:52;;;;;;;0.20;0.20;;;;;;;;;;5091561;28;20123;-70
2022/11/06 05:51:18;;;;;;;0.10;0.10;;;;;;;;;;5090588;28;20565;-70
2022/11/06 05:53:44;;;;;;;0.10;0.10;;;;;;;;;;5092549;28;20039;-70
2022/11/06 05:56:09;;;;;;;3.10;0.73;;;;;;;;;;5093095;28;20115;-70
2022/11/06 05:58:35;;;;;;;0.10;0.10;;;;;;;;;;5093226;28;20092;-70
2022/11/06 06:01:00;;;;;;;0.10;0.10;;;;;;;;;;5092632;28;20032;-70
2022/11/06 06:03:26;;;;;;;0.75;0.63;;;;;;;;;;5090463;28;20028;-69
2022/11/06 06:05:51;;;;;;;0.10;0.10;;;;;;;;;;5090172;28;20136;-69
2022/11/06 06:08:17;;;;;;;0.10;0.10;;;;;;;;;;5091579;28;20131;-69
2022/11/06 06:10:43;;;;;;;0.10;0.10;;;;;;;;;;5091099;28;20036;-69
2022/11/06 06:13:08;;;;;;;0.20;0.20;;;;;;;;;;5090228;28;20031;-70
2022/11/06 06:15:34;;;;;;;0.10;0.10;;;;;;;;;;5091046;28;20054;-69
2022/11/06 06:17:59;;;;;;;0.13;0.13;;;;;;;;;;5090740;28;20024;-69
2022/11/06 06:20:25;;;;;;;0.10;0.10;;;;;;;;;;5091052;28;20020;-69
2022/11/06 06:22:54;;;;;;;0.10;0.10;;;;;;;;;;5090810;28;20028;-69
2022/11/06 06:25:19;;;;;;;0.25;0.25;;;;;;;;;;5091284;28;20042;-69
2022/11/06 06:27:44;;;;;;;0.10;0.10;;;;;;;;;;5091053;28;20115;-69
2022/11/06 06:30:10;;;;;;;0.10;0.10;;;;;;;;;;5091146;28;20019;-70
2022/11/06 06:32:35;;;;;;;0.10;0.10;;;;;;;;;;5090968;28;20032;-69
2022/11/06 06:35:01;;;;;;;0.10;0.10;;;;;;;;;;5090873;28;20031;-69
2022/11/06 06:37:26;;;;;;;0.10;0.10;;;;;;;;;;5091223;28;20340;-68
2022/11/06 06:39:52;;;;;;;0.10;0.10;;;;;;;;;;5089417;28;20043;-70
2022/11/06 06:42:17;;;;;;;0.10;0.10;;;;;;;;;;5090550;28;20028;-70
2022/11/06 06:44:43;;;;;;;0.10;0.10;;;;;;;;;;5090397;28;20020;-69
2022/11/06 06:47:08;;;;;;;0.10;0.10;;;;;;;;;;5090753;28;20059;-69
2022/11/06 06:49:34;;;;;;;0.10;0.10;;;;;;;;;;5090738;28;20028;-69
2022/11/06 06:52:00;;;;;;;0.10;0.10;;;;;;;;;;5090667;28;20495;-69
2022/11/06 06:54:25;;;;;;;0.10;0.10;;;;;;;;;;5090726;28;20027;-69
2022/11/06 06:56:51;;;;;;;0.10;0.10;;;;;;;;;;5090304;28;20424;-69
2022/11/06 06:59:16;;;;;;;0.10;0.10;;;;;;;;;;5089258;28;20028;-68
2022/11/06 07:01:42;;;;;;;0.10;0.10;;;;;;;;;;5090190;28;20478;-69
2022/11/06 07:04:08;;;;;;;0.10;0.10;;;;;;;;;;5090614;28;20028;-69
2022/11/06 07:06:33;;;;;;;0.10;0.10;;;;;;;;;;5090187;28;20409;-70
2022/11/06 07:08:58;;;;;;;2.10;1.90;;;;;;;;;;5090208;28;20035;-70
2022/11/06 07:11:24;;;;;;;0.10;0.10;;;;;;;;;;5089277;28;20036;-69
2022/11/06 07:13:49;;;;;;;0.10;0.10;;;;;;;;;;5090067;28;20034;-69
2022/11/06 07:16:15;;;;;;;0.10;0.10;;;;;;;;;;5071852;28;20798;-71
2022/11/06 07:18:40;;;;;;;0.10;0.10;;;;;;;;;;5090128;28;20344;-69
2022/11/06 07:21:07;;;;;;;0.10;0.10;;;;;;;;;;5090119;28;20055;-69
2022/11/06 07:23:33;;;;;;;0.10;0.10;;;;;;;;;;5088765;28;20483;-70
2022/11/06 07:25:58;;;;;;;0.10;0.10;;;;;;;;;;5089910;28;20024;-69
2022/11/06 07:28:24;;;;;;;0.10;0.10;;;;;;;;;;5088094;28;20043;-69
2022/11/06 07:30:49;;;;;;;0.10;0.10;;;;;;;;;;5088256;28;20035;-70
2022/11/06 07:33:15;;;;;;;0.20;0.20;;;;;;;;;;5087170;28;20128;-69
2022/11/06 07:35:40;;;;;;;0.10;0.10;;;;;;;;;;5088504;28;20375;-69
2022/11/06 07:38:06;;;;;;;0.10;0.10;;;;;;;;;;5089739;28;20023;-69
2022/11/06 07:40:32;;;;;;;0.20;0.20;;;;;;;;;;5088676;28;20111;-69
2022/11/06 07:43:07;;;;;;;0.10;0.10;;;;;;;;;;5089512;28;20020;-69
2022/11/06 07:45:33;;;;;;;0.10;0.10;;;;;;;;;;5089253;28;20562;-69
2022/11/06 07:48:00;;;;;;;0.10;0.10;;;;;;;;;;5089351;28;20559;-69
2022/11/06 07:50:26;;;;;;;0.10;0.10;;;;;;;;;;5089638;28;20111;-69
2022/11/06 07:52:52;;;;;;;0.10;0.10;;;;;;;;;;5089433;28;20120;-69
2022/11/06 07:55:17;;;;;;;0.10;0.10;;;;;;;;;;5089596;28;20032;-69
2022/11/06 07:57:43;;;;;;;0.10;0.10;;;;;;;;;;5102336;28;20051;-70
2022/11/06 08:00:08;;;;;;;0.10;0.10;;;;;;;;;;5109781;28;20030;-69
2022/11/06 08:02:41;;;;;;;0.10;0.10;;;;;;;;;;5110044;28;20484;-69
2022/11/06 08:05:06;;;;;;;0.20;0.20;;;;;;;;;;5095683;28;20036;-69
2022/11/06 08:07:32;;;;;;;0.10;0.10;;;;;;;;;;5088994;28;20490;-69
2022/11/06 08:09:57;;;;;;;0.10;0.10;;;;;;;;;;5087937;28;20050;-69
2022/11/06 08:12:23;;;;;;;0.10;0.10;;;;;;;;;;5089746;28;20024;-69
2022/11/06 08:14:48;;;;;;;0.10;0.10;;;;;;;;;;5089346;28;20036;-68
2022/11/06 08:17:14;;;;;;;0.20;0.20;;;;;;;;;;5089440;28;20021;-68
2022/11/06 08:19:39;;;;;;;0.10;0.10;;;;;;;;;;5089506;28;20024;-68
2022/11/06 08:22:04;;;;;;;0.10;0.10;;;;;;;;;;5090336;28;20032;-71
2022/11/06 08:24:30;;;;;;;0.20;0.20;;;;;;;;;;5089645;28;20471;-69
2022/11/06 08:26:56;;;;;;;0.20;0.20;;;;;;;;;;5089573;28;20019;-69
2022/11/06 08:29:22;;;;;;;0.20;0.20;;;;;;;;;;5089321;28;20029;-69
2022/11/06 08:31:47;;;;;;;0.20;0.20;;;;;;;;;;5088027;28;20493;-69
2022/11/06 08:34:12;;;;;;;0.30;0.30;;;;;;;;;;5089351;28;20032;-69
2022/11/06 08:36:39;;;;;;;0.10;0.10;;;;;;;;;;5088274;28;20028;-69
2022/11/06 08:39:05;;;;;;;0.10;0.10;;;;;;;;;;5089359;28;20030;-70
2022/11/06 08:41:32;;;;;;;0.20;0.20;;;;;;;;;;5092517;28;20028;-70
2022/11/06 08:43:58;;;;;;;0.20;0.20;;;;;;;;;;5092948;28;20032;-69
2022/11/06 08:46:23;;;;;;;0.20;0.20;;;;;;;;;;5093116;28;20047;-71
2022/11/06 08:48:49;;;;;;;0.20;0.20;;;;;;;;;;5093017;28;20097;-71
2022/11/06 08:51:14;;;;;;;0.20;0.20;;;;;;;;;;5093133;28;20031;-70
2022/11/06 08:53:39;;;;;;;0.30;0.30;;;;;;;;;;5093151;28;20035;-70
2022/11/06 08:56:05;;;;;;;0.17;0.17;;;;;;;;;;5092634;28;20017;-70
2022/11/06 08:58:31;;;;;;;0.10;0.10;;;;;;;;;;5092893;28;20035;-70
2022/11/06 09:00:56;;;;;;;0.20;0.20;;;;;;;;;;5092482;28;20024;-70
2022/11/06 09:03:21;;;;;;;0.20;0.20;;;;;;;;;;5091613;28;20107;-70
2022/11/06 09:05:47;;;;;;;0.55;0.55;;;;;;;;;;5093027;28;20127;-70
2022/11/06 09:08:13;;;;;;;0.20;0.20;;;;;;;;;;5092589;28;20077;-71
2022/11/06 09:10:40;;;;;;;0.20;0.20;;;;;;;;;;5092825;28;20044;-71
2022/11/06 09:13:06;;;;;;;0.20;0.20;;;;;;;;;;5092867;28;20024;-71
2022/11/06 09:15:31;;;;;;;2.53;0.30;;;;;;;;;;5092262;28;20494;-70
2022/11/06 09:17:57;;;;;;;0.20;0.20;;;;;;;;;;5091552;28;20087;-70
2022/11/06 09:20:23;;;;;;;0.20;0.20;;;;;;;;;;5092632;28;20054;-70
2022/11/06 09:22:49;;;;;;;0.20;0.20;;;;;;;;;;5092250;28;20028;-69
2022/11/06 09:25:14;;;;;;;0.20;0.20;;;;;;;;;;5091580;28;20149;-70
2022/11/06 09:27:41;;;;;;;0.25;0.25;;;;;;;;;;5091068;28;20029;-70
2022/11/06 09:30:07;;;;;;;0.20;0.20;;;;;;;;;;5090962;28;20039;-69
2022/11/06 09:32:32;;;;;;;0.20;0.20;;;;;;;;;;5092223;28;20016;-70
2022/11/06 09:34:59;;;;;;;0.20;0.20;;;;;;;;;;5092409;28;20379;-70
2022/11/06 09:37:24;;;;;;;0.20;0.20;;;;;;;;;;5091376;28;20036;-69
2022/11/06 09:39:50;;;;;;;0.20;0.20;;;;;;;;;;5092080;28;20039;-70
2022/11/06 09:42:26;;;;;;;0.20;0.20;;;;;;;;;;5092070;28;20042;-69
2022/11/06 09:44:54;;;;;;;0.25;0.25;;;;;;;;;;5091575;28;20024;-69
2022/11/06 09:47:22;;;;;;;0.30;0.30;;;;;;;;;;5092247;28;20082;-69
2022/11/06 09:49:52;;;;;;;0.20;0.20;;;;;;;;;;5090078;28;20111;-69
2022/11/06 09:52:18;;;;;;;0.52;0.52;;;;;;;;;;5090704;28;20043;-69
2022/11/06 09:54:49;;;;;;;0.30;0.30;;;;;;;;;;5092126;28;20434;-70
2022/11/06 09:57:18;;;;;;;0.30;0.30;;;;;;;;;;5091593;28;20093;-70
2022/11/06 09:59:44;;;;;;;0.20;0.20;;;;;;;;;;5092067;28;20554;-71
2022/11/06 10:02:26;;;;;;;3.40;3.13;;;;;;;;;;5090807;28;20115;-69
2022/11/06 10:04:59;;;;;;;0.30;0.30;;;;;;;;;;5089666;28;20454;-70
2022/11/06 10:07:29;;;;;;;0.10;0.10;;;;;;;;;;5089918;28;20048;-70
2022/11/06 10:09:54;;;;;;;0.20;0.20;;;;;;;;;;5088061;28;20537;-69
2022/11/06 10:12:27;;;;;;;0.10;0.10;;;;;;;;;;5089704;28;20024;-70
2022/11/06 10:15:11;;;;;;;0.20;0.20;;;;;;;;;;5087941;28;20415;-71
2022/11/06 10:17:37;;;;;;;0.30;0.30;;;;;;;;;;5090753;28;20050;-70
2022/11/06 10:20:08;;;;;;;0.20;0.20;;;;;;;;;;5091491;28;20535;-70
2022/11/06 10:22:43;;;;;;;0.20;0.20;;;;;;;;;;5089283;28;20105;-71
2022/11/06 10:25:18;;;;;;;0.30;0.30;;;;;;;;;;5091253;28;20028;-70
2022/11/06 10:27:51;;;;;;;0.20;0.20;;;;;;;;;;5091232;28;20044;-70
2022/11/06 10:30:17;;;;;;;0.20;0.20;;;;;;;;;;5091391;28;20426;-71
2022/11/06 10:32:51;;;;;;;0.20;0.20;;;;;;;;;;5090783;28;20042;-70
2022/11/06 10:35:20;;;;;;;0.32;0.32;;;;;;;;;;5091262;28;20115;-70
2022/11/06 10:37:48;;;;;;;0.20;0.20;;;;;;;;;;5091218;28;20048;-70
2022/11/06 10:40:18;;;;;;;0.88;0.50;;;;;;;;;;5091367;28;20103;-70
2022/11/06 10:42:45;;;;;;;0.20;0.20;;;;;;;;;;5096925;28;20042;-70
2022/11/06 10:45:13;;;;;;;0.28;0.28;;;;;;;;;;5091902;28;20024;-70
2022/11/06 10:47:42;;;;;;;0.20;0.20;;;;;;;;;;5091264;28;20862;-70
2022/11/06 10:50:11;;;;;;;0.50;0.40;;;;;;;;;;5090795;28;20266;-70
2022/11/06 10:52:44;;;;;;;0.20;0.20;;;;;;;;;;5090802;28;20418;-71
2022/11/06 10:55:10;;;;;;;0.20;0.20;;;;;;;;;;5090081;28;20111;-70
2022/11/06 10:57:48;;;;;;;0.20;0.20;;;;;;;;;;5090656;28;20135;-70
2022/11/06 11:00:14;;;;;;;0.28;0.28;;;;;;;;;;5090424;28;20532;-70
2022/11/06 11:02:42;;;;;;;0.57;0.57;;;;;;;;;;5090601;28;20107;-70
2022/11/06 11:05:15;;;;;;;0.55;0.55;;;;;;;;;;5089439;28;20020;-69
2022/11/06 11:07:41;;;;;;;0.20;0.20;;;;;;;;;;5090510;28;20056;-69
2022/11/06 11:10:22;;;;;;;0.20;0.20;;;;;;;;;;5090429;28;20058;-69
2022/11/06 11:12:48;;;;;;;0.25;0.25;;;;;;;;;;5088675;28;20142;-69
2022/11/06 11:15:15;;;;;;;0.15;0.15;;;;;;;;;;5088948;28;20091;-69
2022/11/06 11:17:41;;;;;;;0.20;0.20;;;;;;;;;;5090335;28;20028;-69
2022/11/06 11:20:43;;;;;;;0.20;0.20;;;;;;;;;;5090006;28;20043;-70
2022/11/06 11:23:14;;;;;;;0.20;0.20;;;;;;;;;;5050656;28;20895;-70
2022/11/06 11:25:42;;;;;;;0.20;0.20;;;;;;;;;;5086235;28;20046;-71
2022/11/06 11:28:31;;;;;;;0.10;0.10;;;;;;;;;;5090104;28;20035;-70
2022/11/06 11:31:03;;;;;;;0.32;0.30;;;;;;;;;;5086809;28;20314;-69
2022/11/06 11:33:29;;;;;;;2.15;1.95;;;;;;;;;;5090063;28;20056;-69
2022/11/06 11:35:55;;;;;;;0.20;0.20;;;;;;;;;;5090040;28;20055;-69
2022/11/06 11:38:21;;;;;;;0.30;0.30;;;;;;;;;;5090008;28;20016;-69
2022/11/06 11:40:47;;;;;;;0.30;0.30;;;;;;;;;;5089493;28;20472;-70
2022/11/06 11:43:26;;;;;;;0.30;0.30;;;;;;;;;;5089756;28;20447;-69
2022/11/06 11:46:11;;;;;;;0.30;0.30;;;;;;;;;;5089609;28;20537;-70
2022/11/06 11:48:45;;;;;;;0.73;0.40;;;;;;;;;;5089328;28;20471;-70
2022/11/06 11:51:15;;;;;;;0.20;0.20;;;;;;;;;;5089977;28;20479;-70
2022/11/06 11:53:41;;;;;;;0.88;0.52;;;;;;;;;;5089645;28;20026;-69
2022/11/06 11:56:12;;;;;;;0.25;0.25;;;;;;;;;;5089410;28;20455;-70
2022/11/06 11:58:38;;;;;;;0.30;0.30;;;;;;;;;;5089404;28;20123;-69
2022/11/06 12:01:06;;;;;;;0.75;0.75;;;;;;;;;;5089701;28;20099;-69
2022/11/06 12:03:34;;;;;;;0.20;0.20;;;;;;;;;;5089924;28;20195;-71
2022/11/06 12:06:10;;;;;;;0.20;0.20;;;;;;;;;;5089271;28;20032;-69
2022/11/06 12:08:37;;;;;;;0.22;0.22;;;;;;;;;;5089345;28;20143;-69
2022/11/06 12:11:03;;;;;;;0.20;0.20;;;;;;;;;;5089310;28;20572;-70
2022/11/06 12:13:29;;;;;;;0.20;0.20;;;;;;;;;;5088202;28;20032;-69
2022/11/06 12:15:55;;;;;;;0.20;0.20;;;;;;;;;;5091746;28;20039;-69
2022/11/06 12:18:30;;;;;;;0.20;0.20;;;;;;;;;;5094029;28;20067;-70
2022/11/06 12:21:14;;;;;;;0.20;0.20;;;;;;;;;;5093999;28;20036;-70
2022/11/06 12:23:43;;;;;;;0.20;0.20;;;;;;;;;;5093461;28;20468;-70
2022/11/06 12:26:09;;;;;;;0.30;0.30;;;;;;;;;;5092181;28;20394;-70
2022/11/06 12:28:36;;;;;;;0.20;0.20;;;;;;;;;;5093062;28;20115;-71
2022/11/06 12:31:06;;;;;;;0.70;0.40;;;;;;;;;;5092166;28;20475;-71
2022/11/06 12:33:33;;;;;;;0.20;0.20;;;;;;;;;;5092385;28;20028;-71
2022/11/06 12:36:02;;;;;;;0.20;0.20;;;;;;;;;;5093660;28;20044;-71
2022/11/06 12:39:03;;;;;;;0.30;0.30;;;;;;;;;;5093700;28;20115;-71
2022/11/06 12:41:30;;;;;;;0.20;0.20;;;;;;;;;;5070596;28;20060;-70
2022/11/06 12:43:57;;;;;;;0.20;0.20;;;;;;;;;;5088521;28;20661;-71
2022/11/06 12:46:22;;;;;;;0.80;0.50;;;;;;;;;;5091629;28;20258;-70
2022/11/06 12:49:14;;;;;;;0.20;0.20;;;;;;;;;;5092372;28;20693;-70
2022/11/06 12:51:49;;;;;;;0.30;0.30;;;;;;;;;;5093454;28;20482;-71
2022/11/06 12:54:24;;;;;;;0.20;0.20;;;;;;;;;;5093361;28;20078;-71
2022/11/06 12:57:02;;;;;;;0.20;0.20;;;;;;;;;;5091484;28;20085;-71
2022/11/06 12:59:43;;;;;;;0.20;0.20;;;;;;;;;;5093407;28;20036;-71
2022/11/06 13:02:22;;;;;;;0.82;0.82;;;;;;;;;;5091705;28;20028;-71
2022/11/06 13:04:51;;;;;;;0.30;0.30;;;;;;;;;;5091452;28;20127;-71
2022/11/06 13:07:33;;;;;;;0.20;0.20;;;;;;;;;;5092688;28;20032;-70
2022/11/06 13:10:02;;;;;;;0.20;0.20;;;;;;;;;;5092703;28;20509;-70
2022/11/06 13:12:31;;;;;;;0.20;0.20;;;;;;;;;;5091946;28;20360;-71
2022/11/06 13:15:09;;;;;;;0.30;0.30;;;;;;;;;;5091456;28;20028;-71
2022/11/06 13:17:44;;;;;;;0.30;0.30;;;;;;;;;;5091192;28;20456;-71
2022/11/06 13:20:16;;;;;;;0.25;0.25;;;;;;;;;;5092144;28;20471;-72
2022/11/06 13:22:42;;;;;;;0.30;0.30;;;;;;;;;;5092592;28;20080;-71
2022/11/06 13:25:14;;;;;;;0.20;0.20;;;;;;;;;;5092490;28;20027;-71
2022/11/06 13:28:06;;;;;;;0.20;0.20;;;;;;;;;;5091425;28;20028;-71
2022/11/06 13:30:32;;;;;;;0.20;0.20;;;;;;;;;;5092038;28;20024;-71
2022/11/06 13:33:04;;;;;;;0.20;0.20;;;;;;;;;;5092222;28;20816;-70
2022/11/06 13:35:31;;;;;;;0.20;0.20;;;;;;;;;;5091889;28;20025;-71
2022/11/06 13:37:57;;;;;;;0.15;0.15;;;;;;;;;;5091056;28;20103;-71
2022/11/06 13:40:37;;;;;;;0.20;0.20;;;;;;;;;;5091913;28;20546;-70
2022/11/06 13:43:08;;;;;;;0.20;0.20;;;;;;;;;;5091798;28;20483;-70
2022/11/06 13:45:48;;;;;;;0.20;0.20;;;;;;;;;;5091598;28;20047;-71
2022/11/06 13:48:13;;;;;;;;;;;;;;;;;;5091284;28;20491;-70
2022/11/06 13:50:46;;;;;;;0.22;0.22;;;;;;;;;;5090427;28;19950;-71
2022/11/06 13:53:24;;;;;;;0.20;0.20;;;;;;;;;;5091921;28;20082;-71
2022/11/06 13:56:08;;;;;;;0.20;0.20;;;;;;;;;;5091795;28;20032;-71
2022/11/06 13:58:53;;;;;;;0.22;0.22;;;;;;;;;;5091425;28;20107;-71
2022/11/06 14:01:22;;;;;;;0.20;0.20;;;;;;;;;;5091596;28;20024;-71
2022/11/06 14:03:56;;;;;;;0.30;0.30;;;;;;;;;;5090316;28;20063;-71
2022/11/06 14:06:24;;;;;;;0.20;0.20;;;;;;;;;;5090518;28;20093;-70
2022/11/06 14:08:51;;;;;;;0.20;0.20;;;;;;;;;;5090250;28;20048;-70
2022/11/06 14:11:19;;;;;;;0.20;0.20;;;;;;;;;;5091268;28;20031;-71
2022/11/06 14:13:57;;;;;;;0.35;0.35;;;;;;;;;;5091699;28;20099;-69
2022/11/06 14:16:24;;;;;;;0.20;0.20;;;;;;;;;;5091391;28;20020;-69
2022/11/06 14:19:03;;;;;;;0.20;0.20;;;;;;;;;;5090923;28;20028;-70
2022/11/06 14:21:35;;;;;;;0.10;0.10;;;;;;;;;;5091184;28;20084;-69
2022/11/06 14:24:04;;;;;;;0.25;0.25;;;;;;;;;;5091160;28;20121;-69
2022/11/06 14:26:36;;;;;;;0.45;0.45;;;;;;;;;;5091148;28;20524;-69
2022/11/06 14:29:20;;;;;;;0.28;0.28;;;;;;;;;;5089706;28;20043;-71
2022/11/06 14:32:09;;;;;;;0.30;0.30;;;;;;;;;;5091203;28;20028;-72
2022/11/06 14:34:36;;;;;;;0.20;0.20;;;;;;;;;;5090131;28;20356;-71
2022/11/06 14:37:25;;;;;;;0.22;0.22;;;;;;;;;;5091221;28;20119;-71
2022/11/06 14:39:54;;;;;;;0.28;0.28;;;;;;;;;;5087682;28;20078;-70
2022/11/06 14:42:22;;;;;;;0.20;0.20;;;;;;;;;;5090896;28;20024;-72
2022/11/06 14:44:53;;;;;;;0.20;0.20;;;;;;;;;;5090598;28;20436;-71
2022/11/06 14:47:28;;;;;;;0.40;0.40;;;;;;;;;;5090323;28;20047;-71
2022/11/06 14:49:55;;;;;;;0.30;0.30;;;;;;;;;;5090637;28;20032;-71
2022/11/06 14:52:23;;;;;;;0.20;0.20;;;;;;;;;;5090608;28;20464;-69
2022/11/06 14:55:00;;;;;;;0.20;0.20;;;;;;;;;;5089283;28;20493;-71
2022/11/06 14:57:39;;;;;;;0.57;0.57;;;;;;;;;;5090541;28;20410;-70
2022/11/06 15:00:05;;;;;;;0.30;0.30;;;;;;;;;;5090643;28;20055;-70
2022/11/06 15:02:32;;;;;;;0.20;0.20;;;;;;;;;;5089189;28;20032;-70
2022/11/06 15:05:03;;;;;;;0.30;0.30;;;;;;;;;;5090099;28;20108;-70
2022/11/06 15:07:38;;;;;;;0.20;0.20;;;;;;;;;;5090785;28;20032;-70